sensor_id;sensor_type;location;lat;lon;timestamp;temperature;humidity
28460;DHT22;32528;45.712;9.192;2024-02-15T00:00:40;6.00;99.50
28460;DHT22;32528;45.712;9.192;2024-02-15T00:02:43;6.00;99.60
28460;DHT22;32528;45.712;9.192;2024-02-15T00:04:47;6.00;99.70
28460;DHT22;32528;45.712;9.192;2024-02-15T00:06:48;6.00;99.70
28460;DHT22;32528;45.712;9.192;2024-02-15T00:08:48;6.00;99.50
28460;DHT22;32528;45.712;9.192;2024-02-15T00:10:52;5.90;99.20
28460;DHT22;32528;45.712;9.192;2024-02-15T00:12:53;6.00;99.40
28460;DHT22;32528;45.712;9.192;2024-02-15T00:14:54;6.00;99.40
28460;DHT22;32528;45.712;9.192;2024-02-15T00:16:58;5.90;99.30
28460;DHT22;32528;45.712;9.192;2024-02-15T00:18:59;5.90;99.20
28460;DHT22;32528;45.712;9.192;2024-02-15T00:21:00;5.90;99.10
28460;DHT22;32528;45.712;9.192;2024-02-15T00:23:00;5.80;99.10
28460;DHT22;32528;45.712;9.192;2024-02-15T00:25:01;5.80;99.30
28460;DHT22;32528;45.712;9.192;2024-02-15T00:27:03;5.80;99.30
28460;DHT22;32528;45.712;9.192;2024-02-15T00:29:04;5.80;99.30
28460;DHT22;32528;45.712;9.192;2024-02-15T00:31:05;5.80;99.20
28460;DHT22;32528;45.712;9.192;2024-02-15T00:33:06;5.80;99.40
28460;DHT22;32528;45.712;9.192;2024-02-15T00:35:08;5.70;99.30
28460;DHT22;32528;45.712;9.192;2024-02-15T00:37:09;5.70;99.20
28460;DHT22;32528;45.712;9.192;2024-02-15T00:39:11;5.70;99.20
28460;DHT22;32528;45.712;9.192;2024-02-15T00:41:12;5.70;99.30
28460;DHT22;32528;45.712;9.192;2024-02-15T00:43:13;5.70;99.10
28460;DHT22;32528;45.712;9.192;2024-02-15T00:45:13;5.60;99.10
28460;DHT22;32528;45.712;9.192;2024-02-15T00:47:14;5.60;99.40
28460;DHT22;32528;45.712;9.192;2024-02-15T00:49:15;5.50;99.30
28460;DHT22;32528;45.712;9.192;2024-02-15T00:51:16;5.50;99.30
28460;DHT22;32528;45.712;9.192;2024-02-15T00:53:17;5.60;99.30
28460;DHT22;32528;45.712;9.192;2024-02-15T00:55:17;5.50;99.30
28460;DHT22;32528;45.712;9.192;2024-02-15T00:57:19;5.50;99.60
28460;DHT22;32528;45.712;9.192;2024-02-15T00:59:20;5.50;99.60
28460;DHT22;32528;45.712;9.192;2024-02-15T01:01:21;5.50;99.60
28460;DHT22;32528;45.712;9.192;2024-02-15T01:03:22;5.50;99.50
28460;DHT22;32528;45.712;9.192;2024-02-15T01:05:23;5.50;99.50
28460;DHT22;32528;45.712;9.192;2024-02-15T01:07:24;5.50;99.70
28460;DHT22;32528;45.712;9.192;2024-02-15T01:09:29;5.50;99.80
28460;DHT22;32528;45.712;9.192;2024-02-15T01:11:30;5.50;99.70
28460;DHT22;32528;45.712;9.192;2024-02-15T01:13:32;5.50;99.60
28460;DHT22;32528;45.712;9.192;2024-02-15T01:15:33;5.40;99.60
28460;DHT22;32528;45.712;9.192;2024-02-15T01:17:33;5.40;99.70
28460;DHT22;32528;45.712;9.192;2024-02-15T01:19:34;5.40;99.80
28460;DHT22;32528;45.712;9.192;2024-02-15T01:21:35;5.40;99.70
28460;DHT22;32528;45.712;9.192;2024-02-15T01:23:36;5.40;99.70
28460;DHT22;32528;45.712;9.192;2024-02-15T01:25:37;5.40;99.60
28460;DHT22;32528;45.712;9.192;2024-02-15T01:27:40;5.40;99.60
28460;DHT22;32528;45.712;9.192;2024-02-15T01:29:40;5.40;99.60
28460;DHT22;32528;45.712;9.192;2024-02-15T01:31:43;5.30;99.70
28460;DHT22;32528;45.712;9.192;2024-02-15T01:33:44;5.30;99.80
28460;DHT22;32528;45.712;9.192;2024-02-15T01:35:45;5.30;99.90
28460;DHT22;32528;45.712;9.192;2024-02-15T01:37:46;5.30;99.90
28460;DHT22;32528;45.712;9.192;2024-02-15T01:39:46;5.30;99.90
28460;DHT22;32528;45.712;9.192;2024-02-15T01:41:47;5.30;99.80
28460;DHT22;32528;45.712;9.192;2024-02-15T01:43:48;5.30;99.50
28460;DHT22;32528;45.712;9.192;2024-02-15T01:45:50;5.30;99.40
28460;DHT22;32528;45.712;9.192;2024-02-15T01:47:52;5.20;99.70
28460;DHT22;32528;45.712;9.192;2024-02-15T01:49:53;5.30;99.60
28460;DHT22;32528;45.712;9.192;2024-02-15T01:51:53;5.30;99.50
28460;DHT22;32528;45.712;9.192;2024-02-15T01:53:57;5.20;99.60
28460;DHT22;32528;45.712;9.192;2024-02-15T01:55:57;5.30;99.70
28460;DHT22;32528;45.712;9.192;2024-02-15T01:57:59;5.20;99.50
28460;DHT22;32528;45.712;9.192;2024-02-15T02:00:01;5.20;99.60
28460;DHT22;32528;45.712;9.192;2024-02-15T02:02:10;5.20;99.60
28460;DHT22;32528;45.712;9.192;2024-02-15T02:04:12;5.20;99.50
28460;DHT22;32528;45.712;9.192;2024-02-15T02:06:13;5.10;99.50
28460;DHT22;32528;45.712;9.192;2024-02-15T02:08:14;5.10;99.60
28460;DHT22;32528;45.712;9.192;2024-02-15T02:10:15;5.10;99.60
28460;DHT22;32528;45.712;9.192;2024-02-15T02:12:16;5.20;99.50
28460;DHT22;32528;45.712;9.192;2024-02-15T02:14:18;5.10;99.60
28460;DHT22;32528;45.712;9.192;2024-02-15T02:16:27;5.10;99.50
28460;DHT22;32528;45.712;9.192;2024-02-15T02:18:27;5.10;99.60
28460;DHT22;32528;45.712;9.192;2024-02-15T02:20:28;5.10;99.60
28460;DHT22;32528;45.712;9.192;2024-02-15T02:22:29;5.10;99.70
28460;DHT22;32528;45.712;9.192;2024-02-15T02:24:33;5.10;99.80
28460;DHT22;32528;45.712;9.192;2024-02-15T02:26:37;5.00;99.80
28460;DHT22;32528;45.712;9.192;2024-02-15T02:28:38;5.00;99.80
28460;DHT22;32528;45.712;9.192;2024-02-15T02:30:38;5.00;99.70
28460;DHT22;32528;45.712;9.192;2024-02-15T02:32:42;5.00;99.60
28460;DHT22;32528;45.712;9.192;2024-02-15T02:34:42;5.00;99.50
28460;DHT22;32528;45.712;9.192;2024-02-15T02:36:44;5.00;99.50
28460;DHT22;32528;45.712;9.192;2024-02-15T02:38:46;4.90;99.50
28460;DHT22;32528;45.712;9.192;2024-02-15T02:40:50;4.90;99.60
28460;DHT22;32528;45.712;9.192;2024-02-15T02:42:53;4.90;99.90
28460;DHT22;32528;45.712;9.192;2024-02-15T02:44:56;4.90;99.60
28460;DHT22;32528;45.712;9.192;2024-02-15T02:46:57;4.80;99.80
28460;DHT22;32528;45.712;9.192;2024-02-15T02:48:57;4.80;99.90
28460;DHT22;32528;45.712;9.192;2024-02-15T02:50:58;4.80;99.70
28460;DHT22;32528;45.712;9.192;2024-02-15T02:52:59;4.80;99.60
28460;DHT22;32528;45.712;9.192;2024-02-15T02:54:59;4.80;99.90
28460;DHT22;32528;45.712;9.192;2024-02-15T02:57:01;4.70;99.80
28460;DHT22;32528;45.712;9.192;2024-02-15T02:59:02;4.70;99.80
28460;DHT22;32528;45.712;9.192;2024-02-15T03:01:04;4.60;99.90
28460;DHT22;32528;45.712;9.192;2024-02-15T03:03:05;4.60;99.90
28460;DHT22;32528;45.712;9.192;2024-02-15T03:05:09;4.60;99.90
28460;DHT22;32528;45.712;9.192;2024-02-15T03:07:11;4.60;99.90
28460;DHT22;32528;45.712;9.192;2024-02-15T03:09:17;4.60;99.90
28460;DHT22;32528;45.712;9.192;2024-02-15T03:11:18;4.60;99.90
28460;DHT22;32528;45.712;9.192;2024-02-15T03:13:18;4.50;99.90
28460;DHT22;32528;45.712;9.192;2024-02-15T03:15:19;4.50;99.90
28460;DHT22;32528;45.712;9.192;2024-02-15T03:17:21;4.50;99.90
28460;DHT22;32528;45.712;9.192;2024-02-15T03:19:21;4.50;99.90
28460;DHT22;32528;45.712;9.192;2024-02-15T03:21:23;4.50;99.90
28460;DHT22;32528;45.712;9.192;2024-02-15T03:23:24;4.50;99.90
28460;DHT22;32528;45.712;9.192;2024-02-15T03:25:25;4.50;99.90
28460;DHT22;32528;45.712;9.192;2024-02-15T03:27:25;4.50;99.90
28460;DHT22;32528;45.712;9.192;2024-02-15T03:29:27;4.50;99.90
28460;DHT22;32528;45.712;9.192;2024-02-15T03:31:29;4.50;99.90
28460;DHT22;32528;45.712;9.192;2024-02-15T03:33:33;4.50;99.90
28460;DHT22;32528;45.712;9.192;2024-02-15T03:35:35;4.40;99.90
28460;DHT22;32528;45.712;9.192;2024-02-15T03:37:36;4.40;99.90
28460;DHT22;32528;45.712;9.192;2024-02-15T03:39:38;4.40;99.90
28460;DHT22;32528;45.712;9.192;2024-02-15T03:41:39;4.30;99.90
28460;DHT22;32528;45.712;9.192;2024-02-15T03:43:39;4.40;99.90
28460;DHT22;32528;45.712;9.192;2024-02-15T03:45:40;4.40;99.90
28460;DHT22;32528;45.712;9.192;2024-02-15T03:47:42;4.40;99.90
28460;DHT22;32528;45.712;9.192;2024-02-15T03:49:42;4.40;99.90
28460;DHT22;32528;45.712;9.192;2024-02-15T03:51:43;4.40;99.90
28460;DHT22;32528;45.712;9.192;2024-02-15T03:53:45;4.30;99.90
28460;DHT22;32528;45.712;9.192;2024-02-15T03:55:46;4.40;99.90
28460;DHT22;32528;45.712;9.192;2024-02-15T03:57:46;4.30;99.90
28460;DHT22;32528;45.712;9.192;2024-02-15T03:59:47;4.30;99.90
28460;DHT22;32528;45.712;9.192;2024-02-15T04:01:53;4.30;99.90
28460;DHT22;32528;45.712;9.192;2024-02-15T04:03:54;4.30;99.90
28460;DHT22;32528;45.712;9.192;2024-02-15T04:05:56;4.30;99.90
28460;DHT22;32528;45.712;9.192;2024-02-15T04:07:56;4.30;99.90
28460;DHT22;32528;45.712;9.192;2024-02-15T04:09:57;4.30;99.90
28460;DHT22;32528;45.712;9.192;2024-02-15T04:11:58;4.30;99.90
28460;DHT22;32528;45.712;9.192;2024-02-15T04:13:59;4.40;99.90
28460;DHT22;32528;45.712;9.192;2024-02-15T04:16:00;4.30;99.90
28460;DHT22;32528;45.712;9.192;2024-02-15T04:18:00;4.30;99.90
28460;DHT22;32528;45.712;9.192;2024-02-15T04:20:01;4.30;99.90
28460;DHT22;32528;45.712;9.192;2024-02-15T04:22:04;4.30;99.90
28460;DHT22;32528;45.712;9.192;2024-02-15T04:24:07;4.40;99.90
28460;DHT22;32528;45.712;9.192;2024-02-15T04:26:08;4.40;99.90
28460;DHT22;32528;45.712;9.192;2024-02-15T04:28:09;4.40;99.90
28460;DHT22;32528;45.712;9.192;2024-02-15T04:30:09;4.40;99.90
28460;DHT22;32528;45.712;9.192;2024-02-15T04:32:11;4.30;99.90
28460;DHT22;32528;45.712;9.192;2024-02-15T04:34:12;4.40;99.90
28460;DHT22;32528;45.712;9.192;2024-02-15T04:36:13;4.30;99.90
28460;DHT22;32528;45.712;9.192;2024-02-15T04:38:16;4.30;99.90
28460;DHT22;32528;45.712;9.192;2024-02-15T04:40:16;4.30;99.90
28460;DHT22;32528;45.712;9.192;2024-02-15T04:42:18;4.30;99.90
28460;DHT22;32528;45.712;9.192;2024-02-15T04:44:19;4.30;99.90
28460;DHT22;32528;45.712;9.192;2024-02-15T04:46:27;4.30;99.90
28460;DHT22;32528;45.712;9.192;2024-02-15T04:48:28;4.30;99.90
28460;DHT22;32528;45.712;9.192;2024-02-15T04:50:30;4.30;99.90
28460;DHT22;32528;45.712;9.192;2024-02-15T04:52:31;4.30;99.90
28460;DHT22;32528;45.712;9.192;2024-02-15T04:54:31;4.30;99.90
28460;DHT22;32528;45.712;9.192;2024-02-15T04:56:33;4.20;99.90
28460;DHT22;32528;45.712;9.192;2024-02-15T04:58:34;4.20;99.90
28460;DHT22;32528;45.712;9.192;2024-02-15T05:00:37;4.20;99.90
28460;DHT22;32528;45.712;9.192;2024-02-15T05:02:37;4.20;99.90
28460;DHT22;32528;45.712;9.192;2024-02-15T05:04:41;4.20;99.90
28460;DHT22;32528;45.712;9.192;2024-02-15T05:06:43;4.20;99.90
28460;DHT22;32528;45.712;9.192;2024-02-15T05:08:43;4.10;99.90
28460;DHT22;32528;45.712;9.192;2024-02-15T05:10:44;4.10;99.90
28460;DHT22;32528;45.712;9.192;2024-02-15T05:12:46;4.10;99.90
28460;DHT22;32528;45.712;9.192;2024-02-15T05:14:48;4.10;99.90
28460;DHT22;32528;45.712;9.192;2024-02-15T05:16:49;4.10;99.90
28460;DHT22;32528;45.712;9.192;2024-02-15T05:18:49;4.10;99.90
28460;DHT22;32528;45.712;9.192;2024-02-15T05:20:50;4.10;99.90
28460;DHT22;32528;45.712;9.192;2024-02-15T05:22:51;4.10;99.90
28460;DHT22;32528;45.712;9.192;2024-02-15T05:24:51;4.10;99.90
28460;DHT22;32528;45.712;9.192;2024-02-15T05:26:54;4.10;99.90
28460;DHT22;32528;45.712;9.192;2024-02-15T05:28:55;4.10;99.90
28460;DHT22;32528;45.712;9.192;2024-02-15T05:31:09;4.00;99.90
28460;DHT22;32528;45.712;9.192;2024-02-15T05:33:10;4.00;99.90
28460;DHT22;32528;45.712;9.192;2024-02-15T05:35:11;3.90;99.90
28460;DHT22;32528;45.712;9.192;2024-02-15T05:37:12;3.90;99.90
28460;DHT22;32528;45.712;9.192;2024-02-15T05:39:13;3.80;99.90
28460;DHT22;32528;45.712;9.192;2024-02-15T05:41:15;3.90;99.90
28460;DHT22;32528;45.712;9.192;2024-02-15T05:43:16;3.80;99.90
28460;DHT22;32528;45.712;9.192;2024-02-15T05:47:22;3.80;99.90
28460;DHT22;32528;45.712;9.192;2024-02-15T05:49:22;3.80;99.90
28460;DHT22;32528;45.712;9.192;2024-02-15T05:51:24;3.90;99.90
28460;DHT22;32528;45.712;9.192;2024-02-15T05:53:25;3.90;99.90
28460;DHT22;32528;45.712;9.192;2024-02-15T05:55:25;3.90;99.90
28460;DHT22;32528;45.712;9.192;2024-02-15T05:57:26;3.80;99.90
28460;DHT22;32528;45.712;9.192;2024-02-15T05:59:27;3.90;99.90
28460;DHT22;32528;45.712;9.192;2024-02-15T06:01:28;3.80;99.90
28460;DHT22;32528;45.712;9.192;2024-02-15T06:03:29;3.70;99.90
28460;DHT22;32528;45.712;9.192;2024-02-15T06:05:32;3.80;99.90
28460;DHT22;32528;45.712;9.192;2024-02-15T06:07:35;3.70;99.90
28460;DHT22;32528;45.712;9.192;2024-02-15T06:09:36;3.70;99.90
28460;DHT22;32528;45.712;9.192;2024-02-15T06:11:37;3.80;99.90
28460;DHT22;32528;45.712;9.192;2024-02-15T06:13:38;3.70;99.90
28460;DHT22;32528;45.712;9.192;2024-02-15T06:15:39;3.80;99.90
28460;DHT22;32528;45.712;9.192;2024-02-15T06:17:41;3.80;99.90
28460;DHT22;32528;45.712;9.192;2024-02-15T06:19:44;3.80;99.90
28460;DHT22;32528;45.712;9.192;2024-02-15T06:21:45;3.80;99.90
28460;DHT22;32528;45.712;9.192;2024-02-15T06:23:47;3.80;99.90
28460;DHT22;32528;45.712;9.192;2024-02-15T06:25:51;3.80;99.90
28460;DHT22;32528;45.712;9.192;2024-02-15T06:27:53;3.80;99.90
28460;DHT22;32528;45.712;9.192;2024-02-15T06:29:59;3.80;99.90
28460;DHT22;32528;45.712;9.192;2024-02-15T06:32:19;3.80;99.90
28460;DHT22;32528;45.712;9.192;2024-02-15T06:34:38;3.80;99.90
28460;DHT22;32528;45.712;9.192;2024-02-15T06:36:57;3.80;99.90
28460;DHT22;32528;45.712;9.192;2024-02-15T06:39:16;3.90;99.90
28460;DHT22;32528;45.712;9.192;2024-02-15T06:41:35;3.90;99.90
28460;DHT22;32528;45.712;9.192;2024-02-15T06:43:36;4.00;99.90
28460;DHT22;32528;45.712;9.192;2024-02-15T06:45:37;4.00;99.90
28460;DHT22;32528;45.712;9.192;2024-02-15T06:47:41;4.10;99.90
28460;DHT22;32528;45.712;9.192;2024-02-15T06:49:43;4.10;99.90
28460;DHT22;32528;45.712;9.192;2024-02-15T06:51:49;4.20;99.90
28460;DHT22;32528;45.712;9.192;2024-02-15T06:53:50;4.20;99.90
28460;DHT22;32528;45.712;9.192;2024-02-15T06:55:51;4.30;99.90
28460;DHT22;32528;45.712;9.192;2024-02-15T06:57:52;4.30;99.90
28460;DHT22;32528;45.712;9.192;2024-02-15T06:59:53;4.30;99.90
28460;DHT22;32528;45.712;9.192;2024-02-15T07:01:53;4.40;99.90
28460;DHT22;32528;45.712;9.192;2024-02-15T07:03:55;4.40;99.90
28460;DHT22;32528;45.712;9.192;2024-02-15T07:05:56;4.50;99.90
28460;DHT22;32528;45.712;9.192;2024-02-15T07:07:57;4.50;99.90
28460;DHT22;32528;45.712;9.192;2024-02-15T07:09:58;4.60;99.80
28460;DHT22;32528;45.712;9.192;2024-02-15T07:11:58;4.70;99.60
28460;DHT22;32528;45.712;9.192;2024-02-15T07:14:00;4.70;99.60
28460;DHT22;32528;45.712;9.192;2024-02-15T07:16:00;4.70;99.50
28460;DHT22;32528;45.712;9.192;2024-02-15T07:18:02;4.80;99.50
28460;DHT22;32528;45.712;9.192;2024-02-15T07:20:04;4.90;99.50
28460;DHT22;32528;45.712;9.192;2024-02-15T07:22:05;4.90;99.40
28460;DHT22;32528;45.712;9.192;2024-02-15T07:24:05;5.00;99.50
28460;DHT22;32528;45.712;9.192;2024-02-15T07:26:06;5.10;99.60
28460;DHT22;32528;45.712;9.192;2024-02-15T07:28:07;5.20;99.60
28460;DHT22;32528;45.712;9.192;2024-02-15T07:30:09;5.30;99.50
28460;DHT22;32528;45.712;9.192;2024-02-15T07:32:10;5.50;99.50
28460;DHT22;32528;45.712;9.192;2024-02-15T07:34:12;5.50;99.50
28460;DHT22;32528;45.712;9.192;2024-02-15T07:36:13;5.70;99.30
28460;DHT22;32528;45.712;9.192;2024-02-15T07:38:14;5.80;99.30
28460;DHT22;32528;45.712;9.192;2024-02-15T07:40:14;6.00;99.30
28460;DHT22;32528;45.712;9.192;2024-02-15T07:42:15;6.20;99.00
28460;DHT22;32528;45.712;9.192;2024-02-15T07:44:16;6.30;98.80
28460;DHT22;32528;45.712;9.192;2024-02-15T07:46:17;6.40;98.80
28460;DHT22;32528;45.712;9.192;2024-02-15T07:48:18;6.50;98.70
28460;DHT22;32528;45.712;9.192;2024-02-15T07:50:19;6.60;98.50
28460;DHT22;32528;45.712;9.192;2024-02-15T07:52:21;6.70;98.40
28460;DHT22;32528;45.712;9.192;2024-02-15T07:54:22;6.80;98.40
28460;DHT22;32528;45.712;9.192;2024-02-15T07:56:23;6.90;98.50
28460;DHT22;32528;45.712;9.192;2024-02-15T07:58:24;7.00;98.50
28460;DHT22;32528;45.712;9.192;2024-02-15T08:00:24;7.20;98.30
28460;DHT22;32528;45.712;9.192;2024-02-15T08:02:27;7.30;98.40
28460;DHT22;32528;45.712;9.192;2024-02-15T08:04:28;7.40;98.00
28460;DHT22;32528;45.712;9.192;2024-02-15T08:06:29;7.50;97.90
28460;DHT22;32528;45.712;9.192;2024-02-15T08:08:33;7.60;98.10
28460;DHT22;32528;45.712;9.192;2024-02-15T08:10:35;7.60;98.20
28460;DHT22;32528;45.712;9.192;2024-02-15T08:12:36;7.70;98.20
28460;DHT22;32528;45.712;9.192;2024-02-15T08:14:37;7.70;98.30
28460;DHT22;32528;45.712;9.192;2024-02-15T08:16:40;7.80;98.30
28460;DHT22;32528;45.712;9.192;2024-02-15T08:18:43;7.80;98.50
28460;DHT22;32528;45.712;9.192;2024-02-15T08:20:44;7.90;98.50
28460;DHT22;32528;45.712;9.192;2024-02-15T08:22:45;7.90;98.50
28460;DHT22;32528;45.712;9.192;2024-02-15T08:24:46;8.00;98.40
28460;DHT22;32528;45.712;9.192;2024-02-15T08:26:48;8.10;98.30
28460;DHT22;32528;45.712;9.192;2024-02-15T08:28:48;8.20;98.30
28460;DHT22;32528;45.712;9.192;2024-02-15T08:30:49;8.30;98.30
28460;DHT22;32528;45.712;9.192;2024-02-15T08:32:52;8.30;98.20
28460;DHT22;32528;45.712;9.192;2024-02-15T08:34:54;8.40;98.20
28460;DHT22;32528;45.712;9.192;2024-02-15T08:36:55;8.60;98.20
28460;DHT22;32528;45.712;9.192;2024-02-15T08:38:58;8.70;98.10
28460;DHT22;32528;45.712;9.192;2024-02-15T08:41:00;8.70;97.90
28460;DHT22;32528;45.712;9.192;2024-02-15T08:43:01;8.80;97.80
28460;DHT22;32528;45.712;9.192;2024-02-15T08:45:01;8.90;97.50
28460;DHT22;32528;45.712;9.192;2024-02-15T08:47:02;9.00;97.10
28460;DHT22;32528;45.712;9.192;2024-02-15T08:49:05;9.10;96.60
28460;DHT22;32528;45.712;9.192;2024-02-15T08:51:06;9.30;96.20
28460;DHT22;32528;45.712;9.192;2024-02-15T08:53:09;9.50;95.80
28460;DHT22;32528;45.712;9.192;2024-02-15T08:55:10;9.60;95.40
28460;DHT22;32528;45.712;9.192;2024-02-15T08:57:11;9.90;95.10
28460;DHT22;32528;45.712;9.192;2024-02-15T08:59:11;10.10;94.10
28460;DHT22;32528;45.712;9.192;2024-02-15T09:01:13;10.30;93.80
28460;DHT22;32528;45.712;9.192;2024-02-15T09:03:14;10.40;93.00
28460;DHT22;32528;45.712;9.192;2024-02-15T09:05:15;10.60;92.70
28460;DHT22;32528;45.712;9.192;2024-02-15T09:07:15;10.70;92.70
28460;DHT22;32528;45.712;9.192;2024-02-15T09:09:16;10.90;92.20
28460;DHT22;32528;45.712;9.192;2024-02-15T09:11:17;11.10;91.70
28460;DHT22;32528;45.712;9.192;2024-02-15T09:13:17;11.20;91.00
28460;DHT22;32528;45.712;9.192;2024-02-15T09:15:18;11.40;90.40
28460;DHT22;32528;45.712;9.192;2024-02-15T09:17:19;11.60;89.50
28460;DHT22;32528;45.712;9.192;2024-02-15T09:19:20;11.70;88.90
28460;DHT22;32528;45.712;9.192;2024-02-15T09:21:20;11.80;88.70
28460;DHT22;32528;45.712;9.192;2024-02-15T09:23:22;11.90;88.50
28460;DHT22;32528;45.712;9.192;2024-02-15T09:25:24;12.00;89.60
28460;DHT22;32528;45.712;9.192;2024-02-15T09:27:24;12.10;88.50
28460;DHT22;32528;45.712;9.192;2024-02-15T09:29:25;12.30;88.10
28460;DHT22;32528;45.712;9.192;2024-02-15T09:31:25;12.30;88.30
28460;DHT22;32528;45.712;9.192;2024-02-15T09:33:26;12.30;89.20
28460;DHT22;32528;45.712;9.192;2024-02-15T09:35:27;12.20;89.00
28460;DHT22;32528;45.712;9.192;2024-02-15T09:37:28;12.10;89.30
28460;DHT22;32528;45.712;9.192;2024-02-15T09:39:28;12.20;89.60
28460;DHT22;32528;45.712;9.192;2024-02-15T09:41:29;12.30;89.30
28460;DHT22;32528;45.712;9.192;2024-02-15T09:43:30;12.30;89.80
28460;DHT22;32528;45.712;9.192;2024-02-15T09:45:30;12.50;89.90
28460;DHT22;32528;45.712;9.192;2024-02-15T09:47:37;12.40;90.00
28460;DHT22;32528;45.712;9.192;2024-02-15T09:49:38;12.50;90.10
28460;DHT22;32528;45.712;9.192;2024-02-15T09:51:39;12.70;90.20
28460;DHT22;32528;45.712;9.192;2024-02-15T09:53:40;12.80;90.50
28460;DHT22;32528;45.712;9.192;2024-02-15T09:55:41;12.80;90.90
28460;DHT22;32528;45.712;9.192;2024-02-15T09:57:46;12.70;90.00
28460;DHT22;32528;45.712;9.192;2024-02-15T09:59:47;12.70;90.10
28460;DHT22;32528;45.712;9.192;2024-02-15T10:01:47;12.60;90.30
28460;DHT22;32528;45.712;9.192;2024-02-15T10:03:49;12.60;90.40
28460;DHT22;32528;45.712;9.192;2024-02-15T10:05:50;12.70;90.70
28460;DHT22;32528;45.712;9.192;2024-02-15T10:07:51;12.80;90.60
28460;DHT22;32528;45.712;9.192;2024-02-15T10:09:52;13.00;90.40
28460;DHT22;32528;45.712;9.192;2024-02-15T10:11:53;13.00;90.40
28460;DHT22;32528;45.712;9.192;2024-02-15T10:14:09;13.00;90.60
28460;DHT22;32528;45.712;9.192;2024-02-15T10:16:17;13.10;90.80
28460;DHT22;32528;45.712;9.192;2024-02-15T10:18:19;13.30;90.60
28460;DHT22;32528;45.712;9.192;2024-02-15T10:20:20;13.50;90.30
28460;DHT22;32528;45.712;9.192;2024-02-15T10:22:23;13.70;90.20
28460;DHT22;32528;45.712;9.192;2024-02-15T10:24:24;13.80;89.90
28460;DHT22;32528;45.712;9.192;2024-02-15T10:26:25;13.90;89.90
28460;DHT22;32528;45.712;9.192;2024-02-15T10:28:26;14.00;89.50
28460;DHT22;32528;45.712;9.192;2024-02-15T10:30:28;14.00;88.90
28460;DHT22;32528;45.712;9.192;2024-02-15T10:32:35;14.10;87.90
28460;DHT22;32528;45.712;9.192;2024-02-15T10:34:43;14.00;87.90
28460;DHT22;32528;45.712;9.192;2024-02-15T10:36:45;14.20;87.90
28460;DHT22;32528;45.712;9.192;2024-02-15T10:38:45;14.00;87.80
28460;DHT22;32528;45.712;9.192;2024-02-15T10:40:46;14.00;88.10
28460;DHT22;32528;45.712;9.192;2024-02-15T10:42:47;14.00;88.40
28460;DHT22;32528;45.712;9.192;2024-02-15T10:44:48;14.00;88.60
28460;DHT22;32528;45.712;9.192;2024-02-15T10:46:52;14.00;89.00
28460;DHT22;32528;45.712;9.192;2024-02-15T10:48:53;14.10;88.90
28460;DHT22;32528;45.712;9.192;2024-02-15T10:50:53;14.20;88.60
28460;DHT22;32528;45.712;9.192;2024-02-15T10:52:56;14.30;88.10
28460;DHT22;32528;45.712;9.192;2024-02-15T10:57:03;14.30;87.80
28460;DHT22;32528;45.712;9.192;2024-02-15T11:01:13;14.20;86.90
28460;DHT22;32528;45.712;9.192;2024-02-15T11:03:22;14.30;87.50
28460;DHT22;32528;45.712;9.192;2024-02-15T11:05:25;14.20;87.60
28460;DHT22;32528;45.712;9.192;2024-02-15T11:07:26;14.10;88.30
28460;DHT22;32528;45.712;9.192;2024-02-15T11:09:28;14.00;88.70
28460;DHT22;32528;45.712;9.192;2024-02-15T11:11:30;14.00;89.80
28460;DHT22;32528;45.712;9.192;2024-02-15T11:13:31;14.00;89.00
28460;DHT22;32528;45.712;9.192;2024-02-15T11:15:47;14.00;89.00
28460;DHT22;32528;45.712;9.192;2024-02-15T11:17:51;14.10;89.20
28460;DHT22;32528;45.712;9.192;2024-02-15T11:19:56;14.10;89.30
28460;DHT22;32528;45.712;9.192;2024-02-15T11:21:57;14.20;90.00
28460;DHT22;32528;45.712;9.192;2024-02-15T11:24:03;14.30;89.10
28460;DHT22;32528;45.712;9.192;2024-02-15T11:28:38;14.50;88.20
28460;DHT22;32528;45.712;9.192;2024-02-15T11:30:39;14.60;87.60
28460;DHT22;32528;45.712;9.192;2024-02-15T11:32:43;14.60;87.40
28460;DHT22;32528;45.712;9.192;2024-02-15T11:34:44;14.70;86.60
28460;DHT22;32528;45.712;9.192;2024-02-15T11:36:48;14.70;86.20
28460;DHT22;32528;45.712;9.192;2024-02-15T11:38:49;14.70;86.10
28460;DHT22;32528;45.712;9.192;2024-02-15T11:42:57;14.60;85.80
28460;DHT22;32528;45.712;9.192;2024-02-15T11:45:05;14.60;86.60
28460;DHT22;32528;45.712;9.192;2024-02-15T11:47:08;14.70;86.40
28460;DHT22;32528;45.712;9.192;2024-02-15T11:49:14;14.70;85.80
28460;DHT22;32528;45.712;9.192;2024-02-15T11:51:26;14.70;86.00
28460;DHT22;32528;45.712;9.192;2024-02-15T11:53:27;14.60;86.00
28460;DHT22;32528;45.712;9.192;2024-02-15T11:55:27;14.70;86.00
28460;DHT22;32528;45.712;9.192;2024-02-15T11:57:29;14.70;85.70
28460;DHT22;32528;45.712;9.192;2024-02-15T11:59:43;14.80;85.70
28460;DHT22;32528;45.712;9.192;2024-02-15T12:02:02;14.90;84.80
28460;DHT22;32528;45.712;9.192;2024-02-15T12:04:22;14.90;86.10
28460;DHT22;32528;45.712;9.192;2024-02-15T12:06:41;15.00;85.70
28460;DHT22;32528;45.712;9.192;2024-02-15T12:09:00;14.90;84.80
28460;DHT22;32528;45.712;9.192;2024-02-15T12:11:19;14.90;85.00
28460;DHT22;32528;45.712;9.192;2024-02-15T12:13:38;15.00;85.50
28460;DHT22;32528;45.712;9.192;2024-02-15T12:16:00;15.10;84.10
28460;DHT22;32528;45.712;9.192;2024-02-15T12:18:19;15.10;85.00
28460;DHT22;32528;45.712;9.192;2024-02-15T12:20:39;14.90;85.50
28460;DHT22;32528;45.712;9.192;2024-02-15T12:22:41;15.10;85.60
28460;DHT22;32528;45.712;9.192;2024-02-15T12:24:44;15.20;85.60
28460;DHT22;32528;45.712;9.192;2024-02-15T12:26:44;15.20;84.90
28460;DHT22;32528;45.712;9.192;2024-02-15T12:28:50;15.30;83.70
28460;DHT22;32528;45.712;9.192;2024-02-15T12:30:55;15.30;84.20
28460;DHT22;32528;45.712;9.192;2024-02-15T12:33:08;15.30;84.50
28460;DHT22;32528;45.712;9.192;2024-02-15T12:35:12;15.30;84.30
28460;DHT22;32528;45.712;9.192;2024-02-15T12:37:20;15.10;84.30
28460;DHT22;32528;45.712;9.192;2024-02-15T12:39:24;15.20;85.00
28460;DHT22;32528;45.712;9.192;2024-02-15T12:41:25;15.10;84.00
28460;DHT22;32528;45.712;9.192;2024-02-15T12:43:26;15.20;84.20
28460;DHT22;32528;45.712;9.192;2024-02-15T12:45:28;15.30;83.60
28460;DHT22;32528;45.712;9.192;2024-02-15T12:47:29;15.20;84.00
28460;DHT22;32528;45.712;9.192;2024-02-15T12:49:31;15.10;85.50
28460;DHT22;32528;45.712;9.192;2024-02-15T12:51:32;15.40;87.90
28460;DHT22;32528;45.712;9.192;2024-02-15T12:53:33;15.60;86.40
28460;DHT22;32528;45.712;9.192;2024-02-15T12:55:37;15.70;85.00
28460;DHT22;32528;45.712;9.192;2024-02-15T12:57:38;15.90;86.00
28460;DHT22;32528;45.712;9.192;2024-02-15T12:59:45;15.80;83.80
28460;DHT22;32528;45.712;9.192;2024-02-15T13:01:45;15.90;86.00
28460;DHT22;32528;45.712;9.192;2024-02-15T13:03:49;16.00;83.20
28460;DHT22;32528;45.712;9.192;2024-02-15T13:05:51;15.90;83.50
28460;DHT22;32528;45.712;9.192;2024-02-15T13:07:53;16.00;84.00
28460;DHT22;32528;45.712;9.192;2024-02-15T13:10:02;16.10;84.40
28460;DHT22;32528;45.712;9.192;2024-02-15T13:12:06;16.10;84.70
28460;DHT22;32528;45.712;9.192;2024-02-15T13:14:07;16.40;87.00